sensor_id;sensor_type;location;lat;lon;timestamp;temperature;humidity
13223;DHT22;6676;45.192;5.722;2022-11-02T00:02:32;13.40;99.90
13223;DHT22;6676;45.192;5.722;2022-11-02T00:05:24;13.30;99.90
13223;DHT22;6676;45.192;5.722;2022-11-02T00:08:15;13.30;99.90
13223;DHT22;6676;45.192;5.722;2022-11-02T00:13:59;13.20;99.90
13223;DHT22;6676;45.192;5.722;2022-11-02T00:16:51;13.30;99.90
13223;DHT22;6676;45.192;5.722;2022-11-02T00:19:42;13.30;99.90
13223;DHT22;6676;45.192;5.722;2022-11-02T00:22:34;13.40;99.90
13223;DHT22;6676;45.192;5.722;2022-11-02T00:28:11;13.40;99.90
13223;DHT22;6676;45.192;5.722;2022-11-02T00:33:42;13.20;99.90
13223;DHT22;6676;45.192;5.722;2022-11-02T00:36:33;13.10;99.90
13223;DHT22;6676;45.192;5.722;2022-11-02T00:39:25;13.10;99.90
13223;DHT22;6676;45.192;5.722;2022-11-02T00:42:16;13.10;99.90
13223;DHT22;6676;45.192;5.722;2022-11-02T00:45:09;13.00;99.90
13223;DHT22;6676;45.192;5.722;2022-11-02T00:48:01;13.10;99.90
13223;DHT22;6676;45.192;5.722;2022-11-02T00:50:53;13.10;99.90
13223;DHT22;6676;45.192;5.722;2022-11-02T00:53:45;13.10;99.90
13223;DHT22;6676;45.192;5.722;2022-11-02T00:56:36;13.10;99.90
13223;DHT22;6676;45.192;5.722;2022-11-02T00:59:28;13.00;99.90
13223;DHT22;6676;45.192;5.722;2022-11-02T01:02:19;13.10;99.90
13223;DHT22;6676;45.192;5.722;2022-11-02T01:05:11;13.10;99.90
13223;DHT22;6676;45.192;5.722;2022-11-02T01:08:02;13.20;99.90
13223;DHT22;6676;45.192;5.722;2022-11-02T01:10:54;13.10;99.90
13223;DHT22;6676;45.192;5.722;2022-11-02T01:13:46;13.10;99.90
13223;DHT22;6676;45.192;5.722;2022-11-02T01:16:39;13.10;99.90
13223;DHT22;6676;45.192;5.722;2022-11-02T01:19:31;13.20;99.90
13223;DHT22;6676;45.192;5.722;2022-11-02T01:22:22;13.30;99.90
13223;DHT22;6676;45.192;5.722;2022-11-02T01:25:13;13.30;99.90
13223;DHT22;6676;45.192;5.722;2022-11-02T01:28:04;13.30;99.90
13223;DHT22;6676;45.192;5.722;2022-11-02T01:33:42;13.30;99.90
13223;DHT22;6676;45.192;5.722;2022-11-02T01:36:34;13.30;99.90
13223;DHT22;6676;45.192;5.722;2022-11-02T01:39:25;13.30;99.90
13223;DHT22;6676;45.192;5.722;2022-11-02T01:42:20;13.20;99.90
13223;DHT22;6676;45.192;5.722;2022-11-02T01:45:13;13.20;99.90
13223;DHT22;6676;45.192;5.722;2022-11-02T01:48:05;13.10;99.90
13223;DHT22;6676;45.192;5.722;2022-11-02T01:50:58;13.20;99.90
13223;DHT22;6676;45.192;5.722;2022-11-02T01:53:52;13.20;99.90
13223;DHT22;6676;45.192;5.722;2022-11-02T01:56:46;13.20;99.90
13223;DHT22;6676;45.192;5.722;2022-11-02T01:59:41;13.20;99.90
13223;DHT22;6676;45.192;5.722;2022-11-02T02:05:21;13.20;99.90
13223;DHT22;6676;45.192;5.722;2022-11-02T02:08:15;13.10;99.90
13223;DHT22;6676;45.192;5.722;2022-11-02T02:11:27;13.20;99.90
13223;DHT22;6676;45.192;5.722;2022-11-02T02:14:20;13.20;99.90
13223;DHT22;6676;45.192;5.722;2022-11-02T02:17:30;13.20;99.90
13223;DHT22;6676;45.192;5.722;2022-11-02T02:20:35;13.20;99.90
13223;DHT22;6676;45.192;5.722;2022-11-02T02:27:08;13.30;99.90
13223;DHT22;6676;45.192;5.722;2022-11-02T02:32:56;13.20;99.90
13223;DHT22;6676;45.192;5.722;2022-11-02T02:35:51;13.20;99.90
13223;DHT22;6676;45.192;5.722;2022-11-02T02:38:46;13.20;99.90
13223;DHT22;6676;45.192;5.722;2022-11-02T02:41:39;13.30;99.90
13223;DHT22;6676;45.192;5.722;2022-11-02T02:44:34;13.30;99.90
13223;DHT22;6676;45.192;5.722;2022-11-02T02:47:28;13.30;99.90
13223;DHT22;6676;45.192;5.722;2022-11-02T02:50:24;13.30;99.90
13223;DHT22;6676;45.192;5.722;2022-11-02T02:53:18;13.30;99.90
13223;DHT22;6676;45.192;5.722;2022-11-02T02:56:10;13.40;99.90
13223;DHT22;6676;45.192;5.722;2022-11-02T03:01:45;13.40;99.90
13223;DHT22;6676;45.192;5.722;2022-11-02T03:04:38;13.40;99.90
13223;DHT22;6676;45.192;5.722;2022-11-02T03:07:32;13.40;99.90
13223;DHT22;6676;45.192;5.722;2022-11-02T03:13:13;13.50;99.90
13223;DHT22;6676;45.192;5.722;2022-11-02T03:18:51;13.50;99.90
13223;DHT22;6676;45.192;5.722;2022-11-02T03:21:43;13.50;99.90
13223;DHT22;6676;45.192;5.722;2022-11-02T03:24:38;13.40;99.90
13223;DHT22;6676;45.192;5.722;2022-11-02T03:27:34;13.40;99.90
13223;DHT22;6676;45.192;5.722;2022-11-02T03:30:29;13.40;99.90
13223;DHT22;6676;45.192;5.722;2022-11-02T03:33:25;13.40;99.90
13223;DHT22;6676;45.192;5.722;2022-11-02T03:36:18;13.40;99.90
13223;DHT22;6676;45.192;5.722;2022-11-02T03:39:12;13.40;99.90
13223;DHT22;6676;45.192;5.722;2022-11-02T03:42:05;13.50;99.90
13223;DHT22;6676;45.192;5.722;2022-11-02T03:47:37;13.50;99.90
13223;DHT22;6676;45.192;5.722;2022-11-02T03:50:32;13.60;99.90
13223;DHT22;6676;45.192;5.722;2022-11-02T03:56:08;13.60;99.90
13223;DHT22;6676;45.192;5.722;2022-11-02T03:59:01;13.60;99.90
13223;DHT22;6676;45.192;5.722;2022-11-02T04:01:53;13.60;99.90
13223;DHT22;6676;45.192;5.722;2022-11-02T04:04:50;13.70;99.90
13223;DHT22;6676;45.192;5.722;2022-11-02T04:07:45;13.70;99.90
13223;DHT22;6676;45.192;5.722;2022-11-02T04:13:36;13.70;99.90
13223;DHT22;6676;45.192;5.722;2022-11-02T04:16:47;13.80;99.90
13223;DHT22;6676;45.192;5.722;2022-11-02T04:19:40;13.70;99.90
13223;DHT22;6676;45.192;5.722;2022-11-02T04:22:32;13.70;99.90
13223;DHT22;6676;45.192;5.722;2022-11-02T04:28:21;13.70;99.90
13223;DHT22;6676;45.192;5.722;2022-11-02T04:31:14;13.70;99.90
13223;DHT22;6676;45.192;5.722;2022-11-02T04:36:49;13.70;99.90
13223;DHT22;6676;45.192;5.722;2022-11-02T04:39:41;13.70;99.90
13223;DHT22;6676;45.192;5.722;2022-11-02T04:42:32;13.70;99.90
13223;DHT22;6676;45.192;5.722;2022-11-02T04:48:05;13.80;99.90
13223;DHT22;6676;45.192;5.722;2022-11-02T04:50:58;13.80;99.90
13223;DHT22;6676;45.192;5.722;2022-11-02T04:53:51;13.80;99.90
13223;DHT22;6676;45.192;5.722;2022-11-02T04:56:44;13.80;99.90
13223;DHT22;6676;45.192;5.722;2022-11-02T04:59:37;13.80;99.90
13223;DHT22;6676;45.192;5.722;2022-11-02T05:05:10;13.80;99.90
13223;DHT22;6676;45.192;5.722;2022-11-02T05:08:02;13.70;99.90
13223;DHT22;6676;45.192;5.722;2022-11-02T05:10:55;13.70;99.90
13223;DHT22;6676;45.192;5.722;2022-11-02T05:13:47;13.60;99.90
13223;DHT22;6676;45.192;5.722;2022-11-02T05:16:39;13.60;99.90
13223;DHT22;6676;45.192;5.722;2022-11-02T05:19:31;13.50;99.90
13223;DHT22;6676;45.192;5.722;2022-11-02T05:22:23;13.50;99.90
13223;DHT22;6676;45.192;5.722;2022-11-02T05:27:55;13.60;99.90
13223;DHT22;6676;45.192;5.722;2022-11-02T05:33:31;13.60;99.90
13223;DHT22;6676;45.192;5.722;2022-11-02T05:36:24;13.70;99.90
13223;DHT22;6676;45.192;5.722;2022-11-02T05:39:16;13.60;99.90
13223;DHT22;6676;45.192;5.722;2022-11-02T05:42:08;13.70;99.90
13223;DHT22;6676;45.192;5.722;2022-11-02T05:47:42;13.70;99.90
13223;DHT22;6676;45.192;5.722;2022-11-02T05:53:11;13.80;99.90
13223;DHT22;6676;45.192;5.722;2022-11-02T05:58:44;13.70;99.90
13223;DHT22;6676;45.192;5.722;2022-11-02T06:01:36;13.70;99.90
13223;DHT22;6676;45.192;5.722;2022-11-02T06:07:09;13.70;99.90
13223;DHT22;6676;45.192;5.722;2022-11-02T06:10:00;13.70;99.90
13223;DHT22;6676;45.192;5.722;2022-11-02T06:12:55;13.70;99.90
13223;DHT22;6676;45.192;5.722;2022-11-02T06:18:29;13.70;99.90
13223;DHT22;6676;45.192;5.722;2022-11-02T06:24:05;13.70;99.90
13223;DHT22;6676;45.192;5.722;2022-11-02T06:27:00;13.60;99.90
13223;DHT22;6676;45.192;5.722;2022-11-02T06:29:52;13.60;99.90
13223;DHT22;6676;45.192;5.722;2022-11-02T06:32:47;13.60;99.90
13223;DHT22;6676;45.192;5.722;2022-11-02T06:35:38;13.60;99.90
13223;DHT22;6676;45.192;5.722;2022-11-02T06:38:29;13.60;99.90
13223;DHT22;6676;45.192;5.722;2022-11-02T06:44:00;13.70;99.90
13223;DHT22;6676;45.192;5.722;2022-11-02T06:49:32;13.70;99.90
13223;DHT22;6676;45.192;5.722;2022-11-02T06:52:24;13.70;99.90
13223;DHT22;6676;45.192;5.722;2022-11-02T06:57:54;13.70;99.90
13223;DHT22;6676;45.192;5.722;2022-11-02T07:00:46;13.80;99.90
13223;DHT22;6676;45.192;5.722;2022-11-02T07:03:37;13.80;99.90
13223;DHT22;6676;45.192;5.722;2022-11-02T07:09:19;13.90;99.90
13223;DHT22;6676;45.192;5.722;2022-11-02T07:14:48;14.00;99.90
13223;DHT22;6676;45.192;5.722;2022-11-02T07:17:40;14.00;99.90
13223;DHT22;6676;45.192;5.722;2022-11-02T07:23:09;14.00;99.90
13223;DHT22;6676;45.192;5.722;2022-11-02T07:28:43;14.10;99.90
13223;DHT22;6676;45.192;5.722;2022-11-02T07:31:34;14.20;99.90
13223;DHT22;6676;45.192;5.722;2022-11-02T07:34:25;14.30;99.90
13223;DHT22;6676;45.192;5.722;2022-11-02T07:37:17;14.30;99.90
13223;DHT22;6676;45.192;5.722;2022-11-02T07:42:47;14.40;99.90
13223;DHT22;6676;45.192;5.722;2022-11-02T07:48:19;14.40;99.90
13223;DHT22;6676;45.192;5.722;2022-11-02T07:53:54;14.40;99.90
13223;DHT22;6676;45.192;5.722;2022-11-02T07:56:45;14.40;99.90
13223;DHT22;6676;45.192;5.722;2022-11-02T07:59:36;14.40;99.90
13223;DHT22;6676;45.192;5.722;2022-11-02T08:02:27;14.50;99.90
13223;DHT22;6676;45.192;5.722;2022-11-02T08:05:18;14.60;99.90
13223;DHT22;6676;45.192;5.722;2022-11-02T08:08:12;14.70;99.90
13223;DHT22;6676;45.192;5.722;2022-11-02T08:11:06;14.80;99.90
13223;DHT22;6676;45.192;5.722;2022-11-02T08:13:57;14.80;99.90
13223;DHT22;6676;45.192;5.722;2022-11-02T08:16:51;14.90;99.90
13223;DHT22;6676;45.192;5.722;2022-11-02T08:19:42;15.00;99.90
13223;DHT22;6676;45.192;5.722;2022-11-02T08:25:17;14.90;99.90
13223;DHT22;6676;45.192;5.722;2022-11-02T08:28:09;14.80;99.90
13223;DHT22;6676;45.192;5.722;2022-11-02T08:31:02;14.80;99.90
13223;DHT22;6676;45.192;5.722;2022-11-02T08:33:53;14.70;99.90
13223;DHT22;6676;45.192;5.722;2022-11-02T08:36:45;14.70;99.90
13223;DHT22;6676;45.192;5.722;2022-11-02T08:39:36;14.70;99.90
13223;DHT22;6676;45.192;5.722;2022-11-02T08:42:27;14.70;99.90
13223;DHT22;6676;45.192;5.722;2022-11-02T08:45:18;14.70;99.90
13223;DHT22;6676;45.192;5.722;2022-11-02T08:48:10;14.70;99.90
13223;DHT22;6676;45.192;5.722;2022-11-02T08:51:04;14.90;99.90
13223;DHT22;6676;45.192;5.722;2022-11-02T08:53:58;15.00;99.90
13223;DHT22;6676;45.192;5.722;2022-11-02T08:56:49;15.10;99.90
13223;DHT22;6676;45.192;5.722;2022-11-02T08:59:40;15.10;99.90
13223;DHT22;6676;45.192;5.722;2022-11-02T09:02:32;15.10;99.90
13223;DHT22;6676;45.192;5.722;2022-11-02T09:05:23;15.10;99.90
13223;DHT22;6676;45.192;5.722;2022-11-02T09:08:16;15.30;99.90
13223;DHT22;6676;45.192;5.722;2022-11-02T09:13:49;15.50;99.90
13223;DHT22;6676;45.192;5.722;2022-11-02T09:16:41;15.60;99.90
13223;DHT22;6676;45.192;5.722;2022-11-02T09:19:32;15.70;99.90
13223;DHT22;6676;45.192;5.722;2022-11-02T09:22:24;15.70;99.90
13223;DHT22;6676;45.192;5.722;2022-11-02T09:25:16;15.70;99.90
13223;DHT22;6676;45.192;5.722;2022-11-02T09:28:09;15.90;99.90
13223;DHT22;6676;45.192;5.722;2022-11-02T09:33:41;15.90;99.90
13223;DHT22;6676;45.192;5.722;2022-11-02T09:36:33;16.00;99.90
13223;DHT22;6676;45.192;5.722;2022-11-02T09:39:24;16.20;99.90
13223;DHT22;6676;45.192;5.722;2022-11-02T09:42:17;16.30;99.90
13223;DHT22;6676;45.192;5.722;2022-11-02T09:45:13;16.50;99.90
13223;DHT22;6676;45.192;5.722;2022-11-02T09:48:09;16.60;99.90
13223;DHT22;6676;45.192;5.722;2022-11-02T09:53:48;16.40;99.90
13223;DHT22;6676;45.192;5.722;2022-11-02T09:56:41;16.50;99.90
13223;DHT22;6676;45.192;5.722;2022-11-02T09:59:33;16.60;99.90
13223;DHT22;6676;45.192;5.722;2022-11-02T10:05:14;16.80;99.90
13223;DHT22;6676;45.192;5.722;2022-11-02T10:14:03;17.10;99.90
13223;DHT22;6676;45.192;5.722;2022-11-02T10:16:58;17.10;99.90
13223;DHT22;6676;45.192;5.722;2022-11-02T10:19:52;17.20;99.90
13223;DHT22;6676;45.192;5.722;2022-11-02T10:22:45;17.40;99.90
13223;DHT22;6676;45.192;5.722;2022-11-02T10:28:22;17.50;99.90
13223;DHT22;6676;45.192;5.722;2022-11-02T10:31:20;17.50;99.90
13223;DHT22;6676;45.192;5.722;2022-11-02T10:34:18;17.50;99.90
13223;DHT22;6676;45.192;5.722;2022-11-02T10:37:35;17.30;99.90
13223;DHT22;6676;45.192;5.722;2022-11-02T10:44:03;17.10;99.90
13223;DHT22;6676;45.192;5.722;2022-11-02T10:53:12;17.00;99.90
13223;DHT22;6676;45.192;5.722;2022-11-02T10:56:11;17.10;99.90
13223;DHT22;6676;45.192;5.722;2022-11-02T10:59:08;17.10;99.90
13223;DHT22;6676;45.192;5.722;2022-11-02T11:04:50;17.30;99.90
13223;DHT22;6676;45.192;5.722;2022-11-02T11:07:44;17.40;99.90
13223;DHT22;6676;45.192;5.722;2022-11-02T11:13:18;17.30;99.90
13223;DHT22;6676;45.192;5.722;2022-11-02T11:16:12;17.40;99.90
13223;DHT22;6676;45.192;5.722;2022-11-02T11:19:17;17.50;99.90
13223;DHT22;6676;45.192;5.722;2022-11-02T11:22:25;17.50;99.90
13223;DHT22;6676;45.192;5.722;2022-11-02T11:28:00;17.50;99.90
13223;DHT22;6676;45.192;5.722;2022-11-02T11:31:09;17.60;99.90
13223;DHT22;6676;45.192;5.722;2022-11-02T11:34:01;17.90;99.90
13223;DHT22;6676;45.192;5.722;2022-11-02T11:36:53;18.10;99.90
13223;DHT22;6676;45.192;5.722;2022-11-02T11:39:50;18.20;99.90
13223;DHT22;6676;45.192;5.722;2022-11-02T11:45:24;18.30;99.90
13223;DHT22;6676;45.192;5.722;2022-11-02T11:48:22;18.30;99.90
13223;DHT22;6676;45.192;5.722;2022-11-02T11:51:31;18.30;99.90
13223;DHT22;6676;45.192;5.722;2022-11-02T11:54:26;18.40;99.90
13223;DHT22;6676;45.192;5.722;2022-11-02T11:57:21;18.60;99.90
13223;DHT22;6676;45.192;5.722;2022-11-02T12:00:27;18.60;99.90
13223;DHT22;6676;45.192;5.722;2022-11-02T12:03:18;18.60;99.90
13223;DHT22;6676;45.192;5.722;2022-11-02T12:06:13;18.60;99.90
13223;DHT22;6676;45.192;5.722;2022-11-02T12:09:08;18.60;99.90
13223;DHT22;6676;45.192;5.722;2022-11-02T12:12:02;18.50;99.90
13223;DHT22;6676;45.192;5.722;2022-11-02T12:14:59;18.50;99.90
13223;DHT22;6676;45.192;5.722;2022-11-02T12:17:57;18.50;99.90
13223;DHT22;6676;45.192;5.722;2022-11-02T12:21:04;18.40;99.90
13223;DHT22;6676;45.192;5.722;2022-11-02T12:24:09;18.40;99.90
13223;DHT22;6676;45.192;5.722;2022-11-02T12:27:09;18.50;99.90
13223;DHT22;6676;45.192;5.722;2022-11-02T12:33:12;18.50;99.90
13223;DHT22;6676;45.192;5.722;2022-11-02T12:36:17;18.50;99.90
13223;DHT22;6676;45.192;5.722;2022-11-02T12:39:11;18.60;99.90
13223;DHT22;6676;45.192;5.722;2022-11-02T12:42:12;18.70;99.90
13223;DHT22;6676;45.192;5.722;2022-11-02T12:45:18;18.80;99.90
13223;DHT22;6676;45.192;5.722;2022-11-02T12:48:11;18.80;99.90
13223;DHT22;6676;45.192;5.722;2022-11-02T12:51:07;18.70;99.90
13223;DHT22;6676;45.192;5.722;2022-11-02T12:54:00;18.90;99.90
13223;DHT22;6676;45.192;5.722;2022-11-02T12:56:53;18.90;99.90
13223;DHT22;6676;45.192;5.722;2022-11-02T12:59:45;19.00;99.90
13223;DHT22;6676;45.192;5.722;2022-11-02T13:02:42;18.80;99.90
13223;DHT22;6676;45.192;5.722;2022-11-02T13:05:36;18.70;99.90
13223;DHT22;6676;45.192;5.722;2022-11-02T13:08:33;18.90;99.90
13223;DHT22;6676;45.192;5.722;2022-11-02T13:11:29;18.90;99.90
13223;DHT22;6676;45.192;5.722;2022-11-02T13:14:22;19.10;99.90
13223;DHT22;6676;45.192;5.722;2022-11-02T13:17:18;19.10;99.90
13223;DHT22;6676;45.192;5.722;2022-11-02T13:20:16;19.10;99.90
13223;DHT22;6676;45.192;5.722;2022-11-02T13:23:14;19.10;99.90
13223;DHT22;6676;45.192;5.722;2022-11-02T13:26:09;19.00;99.90
13223;DHT22;6676;45.192;5.722;2022-11-02T13:29:05;18.90;99.90
13223;DHT22;6676;45.192;5.722;2022-11-02T13:32:00;19.00;99.90
13223;DHT22;6676;45.192;5.722;2022-11-02T13:34:54;18.90;99.90
13223;DHT22;6676;45.192;5.722;2022-11-02T13:37:48;18.90;99.90
13223;DHT22;6676;45.192;5.722;2022-11-02T13:40:42;18.90;99.90
13223;DHT22;6676;45.192;5.722;2022-11-02T13:43:47;18.90;99.90
13223;DHT22;6676;45.192;5.722;2022-11-02T13:46:47;18.90;99.90
13223;DHT22;6676;45.192;5.722;2022-11-02T13:49:42;18.90;99.90
13223;DHT22;6676;45.192;5.722;2022-11-02T13:52:37;18.90;99.90
13223;DHT22;6676;45.192;5.722;2022-11-02T13:55:36;18.90;99.90
13223;DHT22;6676;45.192;5.722;2022-11-02T13:58:30;18.90;99.90
13223;DHT22;6676;45.192;5.722;2022-11-02T14:01:23;18.90;99.90
13223;DHT22;6676;45.192;5.722;2022-11-02T14:04:15;18.90;99.90
13223;DHT22;6676;45.192;5.722;2022-11-02T14:07:21;18.90;99.90
13223;DHT22;6676;45.192;5.722;2022-11-02T14:10:13;18.70;99.90
13223;DHT22;6676;45.192;5.722;2022-11-02T14:13:04;18.70;99.90
13223;DHT22;6676;45.192;5.722;2022-11-02T14:15:56;18.80;99.90
13223;DHT22;6676;45.192;5.722;2022-11-02T14:18:50;18.70;99.90
13223;DHT22;6676;45.192;5.722;2022-11-02T14:21:44;18.70;99.90
13223;DHT22;6676;45.192;5.722;2022-11-02T14:25:15;18.70;99.90
13223;DHT22;6676;45.192;5.722;2022-11-02T14:28:32;18.70;99.90
13223;DHT22;6676;45.192;5.722;2022-11-02T14:31:35;18.70;99.90
13223;DHT22;6676;45.192;5.722;2022-11-02T14:34:39;18.80;99.90
13223;DHT22;6676;45.192;5.722;2022-11-02T14:37:47;18.90;99.90
13223;DHT22;6676;45.192;5.722;2022-11-02T14:40:44;18.90;99.90
13223;DHT22;6676;45.192;5.722;2022-11-02T14:44:02;18.90;99.90
13223;DHT22;6676;45.192;5.722;2022-11-02T14:46:58;18.80;99.90
13223;DHT22;6676;45.192;5.722;2022-11-02T14:49:51;18.90;99.90
13223;DHT22;6676;45.192;5.722;2022-11-02T14:52:59;18.80;99.90
13223;DHT22;6676;45.192;5.722;2022-11-02T14:55:58;18.80;99.90
13223;DHT22;6676;45.192;5.722;2022-11-02T14:58:54;18.70;99.90
13223;DHT22;6676;45.192;5.722;2022-11-02T15:01:54;18.60;99.90
13223;DHT22;6676;45.192;5.722;2022-11-02T15:04:54;18.60;99.90
13223;DHT22;6676;45.192;5.722;2022-11-02T15:07:50;18.80;99.90
13223;DHT22;6676;45.192;5.722;2022-11-02T15:10:46;18.80;99.90
13223;DHT22;6676;45.192;5.722;2022-11-02T15:13:49;18.60;99.90
13223;DHT22;6676;45.192;5.722;2022-11-02T15:16:44;18.50;99.90
13223;DHT22;6676;45.192;5.722;2022-11-02T15:19:41;18.40;99.90
13223;DHT22;6676;45.192;5.722;2022-11-02T15:22:40;18.40;99.90
13223;DHT22;6676;45.192;5.722;2022-11-02T15:25:35;18.40;99.90
13223;DHT22;6676;45.192;5.722;2022-11-02T15:28:32;18.40;99.90
13223;DHT22;6676;45.192;5.722;2022-11-02T15:31:26;18.40;99.90
13223;DHT22;6676;45.192;5.722;2022-11-02T15:34:22;18.40;99.90
13223;DHT22;6676;45.192;5.722;2022-11-02T15:37:19;18.40;99.90
13223;DHT22;6676;45.192;5.722;2022-11-02T15:40:19;18.30;99.90
13223;DHT22;6676;45.192;5.722;2022-11-02T15:43:16;18.20;99.90
13223;DHT22;6676;45.192;5.722;2022-11-02T15:46:12;18.10;99.90
13223;DHT22;6676;45.192;5.722;2022-11-02T15:49:11;18.00;99.90
13223;DHT22;6676;45.192;5.722;2022-11-02T15:52:07;17.90;99.90
13223;DHT22;6676;45.192;5.722;2022-11-02T15:55:04;17.80;99.90
13223;DHT22;6676;45.192;5.722;2022-11-02T15:58:02;17.80;99.90
13223;DHT22;6676;45.192;5.722;2022-11-02T16:01:15;17.60;99.90
13223;DHT22;6676;45.192;5.722;2022-11-02T16:04:15;17.50;99.90
13223;DHT22;6676;45.192;5.722;2022-11-02T16:07:07;17.40;99.90
13223;DHT22;6676;45.192;5.722;2022-11-02T16:10:21;17.30;99.90
13223;DHT22;6676;45.192;5.722;2022-11-02T16:13:17;17.20;99.90
13223;DHT22;6676;45.192;5.722;2022-11-02T16:16:14;17.10;99.90
13223;DHT22;6676;45.192;5.722;2022-11-02T16:19:18;17.00;99.90
13223;DHT22;6676;45.192;5.722;2022-11-02T16:22:17;16.80;99.90
13223;DHT22;6676;45.192;5.722;2022-11-02T16:25:15;16.70;99.90
13223;DHT22;6676;45.192;5.722;2022-11-02T16:28:18;16.60;99.90
13223;DHT22;6676;45.192;5.722;2022-11-02T16:31:16;16.50;99.90
13223;DHT22;6676;45.192;5.722;2022-11-02T16:34:14;16.40;99.90
13223;DHT22;6676;45.192;5.722;2022-11-02T16:37:08;16.20;99.90
13223;DHT22;6676;45.192;5.722;2022-11-02T16:40:07;16.00;99.90
13223;DHT22;6676;45.192;5.722;2022-11-02T16:43:02;15.90;99.90
13223;DHT22;6676;45.192;5.722;2022-11-02T16:46:02;15.80;99.90
13223;DHT22;6676;45.192;5.722;2022-11-02T16:52:16;15.70;99.90
13223;DHT22;6676;45.192;5.722;2022-11-02T16:55:37;15.70;99.90
13223;DHT22;6676;45.192;5.722;2022-11-02T16:58:29;15.70;99.90
13223;DHT22;6676;45.192;5.722;2022-11-02T17:01:22;15.60;99.90
13223;DHT22;6676;45.192;5.722;2022-11-02T17:04:20;15.50;99.90
13223;DHT22;6676;45.192;5.722;2022-11-02T17:07:15;15.50;99.90
13223;DHT22;6676;45.192;5.722;2022-11-02T17:10:08;15.50;99.90
13223;DHT22;6676;45.192;5.722;2022-11-02T17:13:02;15.40;99.90
13223;DHT22;6676;45.192;5.722;2022-11-02T17:16:00;15.30;99.90
13223;DHT22;6676;45.192;5.722;2022-11-02T17:18:49;15.10;99.90
13223;DHT22;6676;45.192;5.722;2022-11-02T17:21:43;15.10;99.90
13223;DHT22;6676;45.192;5.722;2022-11-02T17:24:34;15.10;99.90
13223;DHT22;6676;45.192;5.722;2022-11-02T17:27:27;15.10;99.90
13223;DHT22;6676;45.192;5.722;2022-11-02T17:30:46;15.10;99.90
13223;DHT22;6676;45.192;5.722;2022-11-02T17:33:39;15.10;99.90
13223;DHT22;6676;45.192;5.722;2022-11-02T17:36:32;15.00;99.90
13223;DHT22;6676;45.192;5.722;2022-11-02T17:39:24;14.90;99.90
13223;DHT22;6676;45.192;5.722;2022-11-02T17:42:16;14.90;99.90
13223;DHT22;6676;45.192;5.722;2022-11-02T17:45:27;14.90;99.90
13223;DHT22;6676;45.192;5.722;2022-11-02T17:48:18;14.80;99.90
13223;DHT22;6676;45.192;5.722;2022-11-02T17:51:11;14.70;99.90
13223;DHT22;6676;45.192;5.722;2022-11-02T17:54:04;14.70;99.90
13223;DHT22;6676;45.192;5.722;2022-11-02T17:56:56;14.70;99.90
13223;DHT22;6676;45.192;5.722;2022-11-02T17:59:47;14.70;99.90
13223;DHT22;6676;45.192;5.722;2022-11-02T18:02:40;14.60;99.90
13223;DHT22;6676;45.192;5.722;2022-11-02T18:05:34;14.60;99.90
13223;DHT22;6676;45.192;5.722;2022-11-02T18:08:26;14.60;99.90
13223;DHT22;6676;45.192;5.722;2022-11-02T18:11:18;14.60;99.90
13223;DHT22;6676;45.192;5.722;2022-11-02T18:14:15;14.60;99.90
13223;DHT22;6676;45.192;5.722;2022-11-02T18:17:06;14.40;99.90
13223;DHT22;6676;45.192;5.722;2022-11-02T18:19:58;14.40;99.90
13223;DHT22;6676;45.192;5.722;2022-11-02T18:22:49;14.30;99.90
13223;DHT22;6676;45.192;5.722;2022-11-02T18:25:41;14.20;99.90
13223;DHT22;6676;45.192;5.722;2022-11-02T18:28:32;14.20;99.90
13223;DHT22;6676;45.192;5.722;2022-11-02T18:31:23;14.10;99.90
13223;DHT22;6676;45.192;5.722;2022-11-02T18:34:15;14.10;99.90
13223;DHT22;6676;45.192;5.722;2022-11-02T18:37:06;14.10;99.90
13223;DHT22;6676;45.192;5.722;2022-11-02T18:39:58;14.00;99.90
13223;DHT22;6676;45.192;5.722;2022-11-02T18:42:49;14.10;99.90
13223;DHT22;6676;45.192;5.722;2022-11-02T18:45:41;14.10;99.90
13223;DHT22;6676;45.192;5.722;2022-11-02T18:48:33;14.00;99.90
13223;DHT22;6676;45.192;5.722;2022-11-02T18:51:25;14.00;99.90
13223;DHT22;6676;45.192;5.722;2022-11-02T18:54:16;14.00;99.90
13223;DHT22;6676;45.192;5.722;2022-11-02T18:57:13;13.90;99.90
13223;DHT22;6676;45.192;5.722;2022-11-02T19:00:21;13.80;99.90
13223;DHT22;6676;45.192;5.722;2022-11-02T19:03:21;13.70;99.90
13223;DHT22;6676;45.192;5.722;2022-11-02T19:06:20;13.70;99.90
13223;DHT22;6676;45.192;5.722;2022-11-02T19:09:41;13.70;99.90
13223;DHT22;6676;45.192;5.722;2022-11-02T19:12:38;13.60;99.90
13223;DHT22;6676;45.192;5.722;2022-11-02T19:15:35;13.70;99.90
13223;DHT22;6676;45.192;5.722;2022-11-02T19:18:30;13.60;99.90
13223;DHT22;6676;45.192;5.722;2022-11-02T19:21:26;13.60;99.90
13223;DHT22;6676;45.192;5.722;2022-11-02T19:24:25;13.60;99.90
13223;DHT22;6676;45.192;5.722;2022-11-02T19:27:19;13.60;99.90
13223;DHT22;6676;45.192;5.722;2022-11-02T19:30:18;13.50;99.90
13223;DHT22;6676;45.192;5.722;2022-11-02T19:33:11;13.50;99.90
13223;DHT22;6676;45.192;5.722;2022-11-02T19:36:09;13.50;99.90
13223;DHT22;6676;45.192;5.722;2022-11-02T19:39:05;13.50;99.90
13223;DHT22;6676;45.192;5.722;2022-11-02T19:42:01;13.50;99.90
13223;DHT22;6676;45.192;5.722;2022-11-02T19:45:00;13.50;99.90
13223;DHT22;6676;45.192;5.722;2022-11-02T19:48:16;13.50;99.90
13223;DHT22;6676;45.192;5.722;2022-11-02T19:51:10;13.50;99.90
13223;DHT22;6676;45.192;5.722;2022-11-02T19:54:08;13.50;99.90
13223;DHT22;6676;45.192;5.722;2022-11-02T19:57:10;13.40;99.90
13223;DHT22;6676;45.192;5.722;2022-11-02T20:00:12;13.50;99.90
13223;DHT22;6676;45.192;5.722;2022-11-02T20:03:09;13.40;99.90
13223;DHT22;6676;45.192;5.722;2022-11-02T20:06:10;13.40;99.90
13223;DHT22;6676;45.192;5.722;2022-11-02T20:09:16;13.40;99.90
13223;DHT22;6676;45.192;5.722;2022-11-02T20:12:14;13.40;99.90
13223;DHT22;6676;45.192;5.722;2022-11-02T20:15:10;13.40;99.90
13223;DHT22;6676;45.192;5.722;2022-11-02T20:18:08;13.40;99.90
13223;DHT22;6676;45.192;5.722;2022-11-02T20:21:09;13.40;99.90
13223;DHT22;6676;45.192;5.722;2022-11-02T20:24:08;13.40;99.90
13223;DHT22;6676;45.192;5.722;2022-11-02T20:27:04;13.30;99.90
13223;DHT22;6676;45.192;5.722;2022-11-02T20:30:19;13.30;99.90
13223;DHT22;6676;45.192;5.722;2022-11-02T20:33:34;13.40;99.90
13223;DHT22;6676;45.192;5.722;2022-11-02T20:36:30;13.30;99.90
13223;DHT22;6676;45.192;5.722;2022-11-02T20:39:25;13.30;99.90
13223;DHT22;6676;45.192;5.722;2022-11-02T20:42:19;13.30;99.90
13223;DHT22;6676;45.192;5.722;2022-11-02T20:45:32;13.30;99.90
13223;DHT22;6676;45.192;5.722;2022-11-02T20:48:26;13.20;99.90
13223;DHT22;6676;45.192;5.722;2022-11-02T20:51:40;13.20;99.90
13223;DHT22;6676;45.192;5.722;2022-11-02T20:54:51;13.20;99.90
13223;DHT22;6676;45.192;5.722;2022-11-02T20:57:47;13.10;99.90
13223;DHT22;6676;45.192;5.722;2022-11-02T21:00:43;13.10;99.90
13223;DHT22;6676;45.192;5.722;2022-11-02T21:06:30;13.00;99.90
13223;DHT22;6676;45.192;5.722;2022-11-02T21:09:21;13.00;99.90
13223;DHT22;6676;45.192;5.722;2022-11-02T21:12:14;13.00;99.90
13223;DHT22;6676;45.192;5.722;2022-11-02T21:18:14;13.00;99.90